Wetterdaten: aktuell Freitag, 04.09.2026 13:35
Datum Zeit Temp. A. Feuchte A. Luftdruck Regen Wind Richtung Richtung Taupunkt Windchill Windböen
04.09.2026 13:35 27,0 °C 63 % 1012,7 hPa 0,0 mm 16,7 km/h (3 Bft) SW 235 ° 19,3 °C 25,6 °C 29,0 km/h (5 Bft)
04.09.2026 13:30 27,1 °C 63 % 1012,8 hPa 0,0 mm 16,2 km/h (3 Bft) W 267 ° 19,4 °C 25,7 °C 27,4 km/h (4 Bft)
04.09.2026 13:25 26,9 °C 64 % 1012,8 hPa 0,0 mm 18,1 km/h (3 Bft) W-SW 241 ° 19,5 °C 25,3 °C 38,6 km/h (5 Bft)
04.09.2026 13:20 27,0 °C 64 % 1012,7 hPa 0,0 mm 15,2 km/h (3 Bft) W-SW 246 ° 19,6 °C 25,7 °C 30,6 km/h (5 Bft)
04.09.2026 13:15 26,9 °C 65 % 1012,8 hPa 0,0 mm 17,3 km/h (3 Bft) W 272 ° 19,7 °C 25,4 °C 29,0 km/h (5 Bft)
04.09.2026 13:10 26,9 °C 65 % 1012,9 hPa 0,0 mm 19,6 km/h (3 Bft) W 279 ° 19,7 °C 25,2 °C 38,6 km/h (5 Bft)
04.09.2026 13:05 26,8 °C 65 % 1013,0 hPa 0,0 mm 19,2 km/h (3 Bft) W 276 ° 19,7 °C 25,1 °C 33,8 km/h (5 Bft)
04.09.2026 13:00 27,0 °C 64 % 1012,9 hPa 0,0 mm 16,1 km/h (3 Bft) W-NW 298 ° 19,6 °C 25,6 °C 32,2 km/h (5 Bft)
04.09.2026 12:55 26,6 °C 66 % 1012,9 hPa 0,0 mm 17,1 km/h (3 Bft) W 280 ° 19,7 °C 25,0 °C 35,4 km/h (5 Bft)
04.09.2026 12:50 26,5 °C 67 % 1013,0 hPa 0,0 mm 13,2 km/h (3 Bft) W-NW 295 ° 19,9 °C 25,4 °C 24,1 km/h (4 Bft)
04.09.2026 12:45 26,4 °C 68 % 1013,1 hPa 0,0 mm 12,5 km/h (3 Bft) W 273 ° 20,0 °C 25,3 °C 25,7 km/h (4 Bft)
04.09.2026 12:40 26,3 °C 67 % 1013,3 hPa 0,0 mm 14,9 km/h (3 Bft) W 272 ° 19,7 °C 24,9 °C 29,0 km/h (5 Bft)
04.09.2026 12:35 26,2 °C 68 % 1013,2 hPa 0,0 mm 11,2 km/h (2 Bft) N-NW 333 ° 19,8 °C 25,3 °C 20,9 km/h (4 Bft)
04.09.2026 12:30 25,9 °C 68 % 1013,4 hPa 0,0 mm 12,7 km/h (3 Bft) W 265 ° 19,5 °C 24,7 °C 25,7 km/h (4 Bft)
04.09.2026 12:25 25,7 °C 69 % 1013,4 hPa 0,0 mm 13,0 km/h (3 Bft) W-SW 240 ° 19,6 °C 24,4 °C 22,5 km/h (4 Bft)
04.09.2026 12:20 25,7 °C 68 % 1013,5 hPa 0,0 mm 14,0 km/h (3 Bft) W-SW 246 ° 19,3 °C 24,3 °C 25,7 km/h (4 Bft)
04.09.2026 12:15 25,5 °C 69 % 1013,5 hPa 0,0 mm 16,4 km/h (3 Bft) W-SW 256 ° 19,4 °C 23,7 °C 32,2 km/h (5 Bft)
04.09.2026 12:10 25,3 °C 70 % 1013,6 hPa 0,0 mm 14,4 km/h (3 Bft) W-NW 288 ° 19,4 °C 23,8 °C 27,4 km/h (4 Bft)
04.09.2026 12:05 25,1 °C 70 % 1013,5 hPa 0,0 mm 14,1 km/h (3 Bft) W-NW 288 ° 19,2 °C 23,6 °C 24,1 km/h (4 Bft)
04.09.2026 12:00 25,1 °C 71 % 1013,6 hPa 0,0 mm 14,8 km/h (3 Bft) W-NW 288 ° 19,5 °C 23,5 °C 29,0 km/h (5 Bft)
04.09.2026 11:55 25,1 °C 71 % 1013,7 hPa 0,0 mm 10,9 km/h (2 Bft) W 279 ° 19,5 °C 24,1 °C 22,5 km/h (4 Bft)
04.09.2026 11:50 25,1 °C 71 % 1013,8 hPa 0,0 mm 9,0 km/h (2 Bft) W-NW 301 ° 19,5 °C 24,5 °C 19,3 km/h (3 Bft)
04.09.2026 11:45 25,1 °C 71 % 1013,7 hPa 0,0 mm 13,3 km/h (3 Bft) W-SW 250 ° 19,5 °C 23,7 °C 25,7 km/h (4 Bft)
04.09.2026 11:40 25,0 °C 70 % 1013,9 hPa 0,0 mm 15,4 km/h (3 Bft) SW 228 ° 19,1 °C 23,2 °C 29,0 km/h (5 Bft)
04.09.2026 11:35 24,9 °C 70 % 1013,9 hPa 0,0 mm 16,1 km/h (3 Bft) W 266 ° 19,0 °C 23,0 °C 27,4 km/h (4 Bft)
04.09.2026 11:30 24,9 °C 70 % 1014,0 hPa 0,0 mm 15,8 km/h (3 Bft) W 273 ° 19,0 °C 23,1 °C 25,7 km/h (4 Bft)
04.09.2026 11:25 24,9 °C 71 % 1013,9 hPa 0,0 mm 14,9 km/h (3 Bft) SW 232 ° 19,3 °C 23,2 °C 27,4 km/h (4 Bft)
04.09.2026 11:20 24,9 °C 70 % 1013,9 hPa 0,0 mm 19,3 km/h (3 Bft) W 263 ° 19,0 °C 22,6 °C 29,0 km/h (5 Bft)
04.09.2026 11:15 25,2 °C 70 % 1013,9 hPa 0,0 mm 15,0 km/h (3 Bft) W-SW 245 ° 19,3 °C 23,5 °C 30,6 km/h (5 Bft)
04.09.2026 11:10 25,5 °C 69 % 1013,8 hPa 0,0 mm 16,7 km/h (3 Bft) W-SW 240 ° 19,4 °C 23,7 °C 30,6 km/h (5 Bft)
04.09.2026 11:05 25,6 °C 70 % 1013,8 hPa 0,0 mm 15,0 km/h (3 Bft) SW 229 ° 19,7 °C 24,0 °C 32,2 km/h (5 Bft)
04.09.2026 11:00 25,6 °C 70 % 1013,8 hPa 0,0 mm 15,7 km/h (3 Bft) SW 225 ° 19,7 °C 23,9 °C 30,6 km/h (5 Bft)
04.09.2026 10:55 25,6 °C 71 % 1013,8 hPa 0,0 mm 12,5 km/h (3 Bft) W 272 ° 19,9 °C 24,4 °C 27,4 km/h (4 Bft)
04.09.2026 10:50 25,2 °C 73 % 1013,8 hPa 0,0 mm 11,6 km/h (2 Bft) W 263 ° 20,0 °C 24,1 °C 25,7 km/h (4 Bft)
04.09.2026 10:45 25,0 °C 72 % 1013,7 hPa 0,0 mm 12,8 km/h (3 Bft) W 281 ° 19,6 °C 23,7 °C 20,9 km/h (4 Bft)
04.09.2026 10:40 24,9 °C 72 % 1013,7 hPa 0,0 mm 13,0 km/h (3 Bft) W 273 ° 19,5 °C 23,5 °C 27,4 km/h (4 Bft)
04.09.2026 10:35 24,8 °C 74 % 1013,7 hPa 0,0 mm 13,7 km/h (3 Bft) SW 231 ° 19,8 °C 23,3 °C 20,9 km/h (4 Bft)
04.09.2026 10:30 24,5 °C 74 % 1013,6 hPa 0,0 mm 13,0 km/h (3 Bft) W 268 ° 19,6 °C 23,0 °C 24,1 km/h (4 Bft)
04.09.2026 10:25 24,4 °C 75 % 1013,7 hPa 0,0 mm 8,3 km/h (2 Bft) W 276 ° 19,7 °C 23,9 °C 17,7 km/h (3 Bft)
04.09.2026 10:20 24,2 °C 74 % 1013,8 hPa 0,0 mm 15,6 km/h (3 Bft) W-NW 286 ° 19,3 °C 22,2 °C 30,6 km/h (5 Bft)
04.09.2026 10:15 24,1 °C 75 % 1013,9 hPa 0,0 mm 15,8 km/h (3 Bft) W 271 ° 19,4 °C 22,1 °C 24,1 km/h (4 Bft)
04.09.2026 10:10 24,1 °C 76 % 1013,9 hPa 0,0 mm 9,9 km/h (2 Bft) W-SW 246 ° 19,6 °C 23,2 °C 22,5 km/h (4 Bft)
04.09.2026 10:05 24,0 °C 75 % 1013,9 hPa 0,0 mm 11,9 km/h (2 Bft) W-SW 254 ° 19,3 °C 22,7 °C 27,4 km/h (4 Bft)
04.09.2026 10:00 23,9 °C 75 % 1014,0 hPa 0,0 mm 14,5 km/h (3 Bft) W-SW 247 ° 19,2 °C 22,1 °C 29,0 km/h (5 Bft)
04.09.2026 09:55 24,0 °C 76 % 1014,0 hPa 0,0 mm 12,1 km/h (2 Bft) SW 221 ° 19,5 °C 22,6 °C 24,1 km/h (4 Bft)
04.09.2026 09:50 23,9 °C 76 % 1014,1 hPa 0,0 mm 11,1 km/h (2 Bft) W 280 ° 19,4 °C 22,7 °C 22,5 km/h (4 Bft)
04.09.2026 09:45 23,9 °C 77 % 1014,2 hPa 0,0 mm 9,9 km/h (2 Bft) W-NW 284 ° 19,6 °C 23,0 °C 17,7 km/h (3 Bft)
04.09.2026 09:40 23,9 °C 76 % 1014,2 hPa 0,0 mm 11,9 km/h (2 Bft) W-NW 288 ° 19,4 °C 22,5 °C 20,9 km/h (4 Bft)
04.09.2026 09:35 23,9 °C 77 % 1014,3 hPa 0,0 mm 10,5 km/h (2 Bft) W-SW 252 ° 19,6 °C 22,8 °C 20,9 km/h (4 Bft)
04.09.2026 09:30 23,8 °C 78 % 1014,4 hPa 0,0 mm 8,0 km/h (2 Bft) W 267 ° 19,7 °C 23,3 °C 14,5 km/h (3 Bft)
04.09.2026 09:25 23,7 °C 79 % 1014,4 hPa 0,0 mm 6,7 km/h (2 Bft) W 278 ° 19,8 °C 23,6 °C 16,1 km/h (3 Bft)
04.09.2026 09:20 23,5 °C 78 % 1014,4 hPa 0,0 mm 9,8 km/h (2 Bft) W-SW 255 ° 19,4 °C 22,6 °C 16,1 km/h (3 Bft)
04.09.2026 09:15 23,3 °C 79 % 1014,4 hPa 0,0 mm 9,0 km/h (2 Bft) SW 232 ° 19,4 °C 22,5 °C 17,7 km/h (3 Bft)
04.09.2026 09:10 23,2 °C 79 % 1014,5 hPa 0,0 mm 9,2 km/h (2 Bft) W 271 ° 19,3 °C 22,4 °C 24,1 km/h (4 Bft)
04.09.2026 09:05 23,1 °C 79 % 1014,6 hPa 0,0 mm 7,8 km/h (2 Bft) W 281 ° 19,3 °C 22,7 °C 16,1 km/h (3 Bft)
04.09.2026 09:00 22,9 °C 80 % 1014,6 hPa 0,0 mm 5,6 km/h (1 Bft) W 267 ° 19,3 °C 22,9 °C 14,5 km/h (3 Bft)
04.09.2026 08:55 22,8 °C 81 % 1014,5 hPa 0,0 mm 7,1 km/h (2 Bft) W 270 ° 19,4 °C 22,6 °C 12,9 km/h (3 Bft)
04.09.2026 08:50 22,6 °C 81 % 1014,7 hPa 0,0 mm 7,4 km/h (2 Bft) W 271 ° 19,2 °C 22,3 °C 17,7 km/h (3 Bft)
04.09.2026 08:45 22,5 °C 81 % 1014,6 hPa 0,0 mm 7,4 km/h (2 Bft) W 271 ° 19,1 °C 22,2 °C 16,1 km/h (3 Bft)
04.09.2026 08:40 22,3 °C 82 % 1014,6 hPa 0,0 mm 6,9 km/h (2 Bft) W 275 ° 19,1 °C 22,1 °C 16,1 km/h (3 Bft)
04.09.2026 08:35 22,1 °C 82 % 1014,6 hPa 0,0 mm 6,3 km/h (2 Bft) W-SW 248 ° 18,9 °C 22,1 °C 14,5 km/h (3 Bft)
04.09.2026 08:30 22,1 °C 82 % 1014,7 hPa 0,0 mm 5,8 km/h (2 Bft) SW 225 ° 18,9 °C 22,1 °C 19,3 km/h (3 Bft)
04.09.2026 08:25 22,0 °C 83 % 1014,8 hPa 0,0 mm 7,6 km/h (2 Bft) W 266 ° 19,0 °C 21,6 °C 16,1 km/h (3 Bft)
04.09.2026 08:20 21,9 °C 83 % 1014,8 hPa 0,0 mm 7,3 km/h (2 Bft) W 277 ° 18,9 °C 21,6 °C 22,5 km/h (4 Bft)
04.09.2026 08:15 21,8 °C 83 % 1014,8 hPa 0,0 mm 4,3 km/h (1 Bft) W 273 ° 18,8 °C 21,8 °C 11,3 km/h (2 Bft)
04.09.2026 08:10 21,7 °C 83 % 1014,8 hPa 0,0 mm 5,8 km/h (2 Bft) SW 223 ° 18,7 °C 21,7 °C 12,9 km/h (3 Bft)
04.09.2026 08:05 21,6 °C 84 % 1014,9 hPa 0,0 mm 4,6 km/h (1 Bft) W-SW 246 ° 18,8 °C 21,6 °C 11,3 km/h (2 Bft)
04.09.2026 08:00 21,5 °C 84 % 1015,1 hPa 0,0 mm 3,9 km/h (1 Bft) W-SW 237 ° 18,7 °C 21,5 °C 8,0 km/h (2 Bft)
04.09.2026 07:55 21,3 °C 84 % 1015,1 hPa 0,0 mm 4,4 km/h (1 Bft) SW 236 ° 18,5 °C 21,3 °C 12,9 km/h (3 Bft)
04.09.2026 07:50 21,3 °C 84 % 1015,1 hPa 0,0 mm 1,6 km/h (1 Bft) W 259 ° 18,5 °C 21,3 °C 6,4 km/h (2 Bft)
04.09.2026 07:45 21,2 °C 85 % 1015,3 hPa 0,0 mm 2,5 km/h (1 Bft) W 259 ° 18,6 °C 21,2 °C 6,4 km/h (2 Bft)
04.09.2026 07:40 21,1 °C 85 % 1015,2 hPa 0,0 mm 2,1 km/h (1 Bft) W 265 ° 18,5 °C 21,1 °C 6,4 km/h (2 Bft)
04.09.2026 07:35 20,9 °C 85 % 1015,4 hPa 0,0 mm 3,2 km/h (1 Bft) W 267 ° 18,3 °C 20,9 °C 6,4 km/h (2 Bft)
04.09.2026 07:30 20,8 °C 85 % 1015,5 hPa 0,0 mm 3,3 km/h (1 Bft) W 267 ° 18,2 °C 20,8 °C 9,7 km/h (2 Bft)
04.09.2026 07:25 20,7 °C 85 % 1015,5 hPa 0,0 mm 0,0 km/h (0 Bft) W 275 ° 18,1 °C 20,7 °C 0,0 km/h (0 Bft)
04.09.2026 07:20 20,7 °C 85 % 1015,4 hPa 0,0 mm 0,0 km/h (0 Bft) W 275 ° 18,1 °C 20,7 °C 0,0 km/h (0 Bft)
04.09.2026 07:15 20,7 °C 85 % 1015,3 hPa 0,0 mm 0,7 km/h (0 Bft) W 275 ° 18,1 °C 20,7 °C 4,8 km/h (1 Bft)
04.09.2026 07:10 20,7 °C 85 % 1015,5 hPa 0,0 mm 0,6 km/h (0 Bft) W 275 ° 18,1 °C 20,7 °C 3,2 km/h (1 Bft)
04.09.2026 07:05 20,7 °C 85 % 1015,4 hPa 0,0 mm 0,9 km/h (0 Bft) W 275 ° 18,1 °C 20,7 °C 4,8 km/h (1 Bft)
04.09.2026 07:00 20,7 °C 85 % 1015,5 hPa 0,0 mm 1,1 km/h (1 Bft) W 275 ° 18,1 °C 20,7 °C 6,4 km/h (2 Bft)
04.09.2026 06:55 20,6 °C 85 % 1015,4 hPa 0,0 mm 2,3 km/h (1 Bft) W 275 ° 18,0 °C 20,6 °C 6,4 km/h (2 Bft)
04.09.2026 06:50 20,6 °C 85 % 1015,5 hPa 0,0 mm 0,0 km/h (0 Bft) W 276 ° 18,0 °C 20,6 °C 0,0 km/h (0 Bft)
04.09.2026 06:45 20,6 °C 85 % 1015,4 hPa 0,0 mm 0,0 km/h (0 Bft) W 276 ° 18,0 °C 20,6 °C 0,0 km/h (0 Bft)
04.09.2026 06:40 20,6 °C 85 % 1015,5 hPa 0,0 mm 1,3 km/h (1 Bft) W 276 ° 18,0 °C 20,6 °C 4,8 km/h (1 Bft)
04.09.2026 06:35 20,6 °C 85 % 1015,7 hPa 0,0 mm 0,7 km/h (0 Bft) W 276 ° 18,0 °C 20,6 °C 3,2 km/h (1 Bft)
04.09.2026 06:30 20,6 °C 85 % 1015,8 hPa 0,0 mm 1,5 km/h (1 Bft) W 276 ° 18,0 °C 20,6 °C 3,2 km/h (1 Bft)
04.09.2026 06:25 20,6 °C 85 % 1015,8 hPa 0,0 mm 1,8 km/h (1 Bft) W 276 ° 18,0 °C 20,6 °C 4,8 km/h (1 Bft)
04.09.2026 06:20 20,6 °C 85 % 1015,8 hPa 0,0 mm 2,8 km/h (1 Bft) W 276 ° 18,0 °C 20,6 °C 6,4 km/h (2 Bft)
04.09.2026 06:15 20,6 °C 85 % 1015,9 hPa 0,0 mm 2,3 km/h (1 Bft) W 276 ° 18,0 °C 20,6 °C 6,4 km/h (2 Bft)
04.09.2026 06:10 20,7 °C 85 % 1015,8 hPa 0,0 mm 1,0 km/h (0 Bft) W 276 ° 18,1 °C 20,7 °C 3,2 km/h (1 Bft)
04.09.2026 06:05 20,7 °C 85 % 1015,9 hPa 0,0 mm 2,7 km/h (1 Bft) W 276 ° 18,1 °C 20,7 °C 6,4 km/h (2 Bft)
04.09.2026 06:00 20,7 °C 85 % 1016,0 hPa 0,0 mm 3,2 km/h (1 Bft) W 275 ° 18,1 °C 20,7 °C 6,4 km/h (2 Bft)
04.09.2026 05:55 20,7 °C 84 % 1016,2 hPa 0,0 mm 3,8 km/h (1 Bft) W 275 ° 17,9 °C 20,7 °C 9,7 km/h (2 Bft)
04.09.2026 05:50 20,7 °C 85 % 1016,2 hPa 0,0 mm 4,5 km/h (1 Bft) W 275 ° 18,1 °C 20,7 °C 9,7 km/h (2 Bft)
04.09.2026 05:45 20,6 °C 85 % 1016,2 hPa 0,0 mm 4,6 km/h (1 Bft) W 278 ° 18,0 °C 20,6 °C 9,7 km/h (2 Bft)
04.09.2026 05:40 20,6 °C 85 % 1016,2 hPa 0,0 mm 5,1 km/h (1 Bft) W 271 ° 18,0 °C 20,6 °C 9,7 km/h (2 Bft)
04.09.2026 05:35 20,5 °C 85 % 1016,2 hPa 0,0 mm 4,9 km/h (1 Bft) W 268 ° 17,9 °C 20,5 °C 14,5 km/h (3 Bft)
04.09.2026 05:30 20,4 °C 85 % 1016,3 hPa 0,0 mm 4,7 km/h (1 Bft) W-NW 296 ° 17,8 °C 20,4 °C 8,0 km/h (2 Bft)
04.09.2026 05:25 20,4 °C 85 % 1016,4 hPa 0,0 mm 5,3 km/h (1 Bft) W-NW 300 ° 17,8 °C 20,4 °C 11,3 km/h (2 Bft)
04.09.2026 05:20 20,3 °C 85 % 1016,4 hPa 0,0 mm 4,5 km/h (1 Bft) W 269 ° 17,7 °C 20,3 °C 11,3 km/h (2 Bft)
04.09.2026 05:15 20,2 °C 86 % 1016,5 hPa 0,0 mm 5,2 km/h (1 Bft) W 268 ° 17,8 °C 20,2 °C 12,9 km/h (3 Bft)
04.09.2026 05:10 20,0 °C 86 % 1016,6 hPa 0,0 mm 4,4 km/h (1 Bft) W 275 ° 17,6 °C 20,0 °C 9,7 km/h (2 Bft)
04.09.2026 05:05 19,9 °C 86 % 1016,7 hPa 0,0 mm 3,5 km/h (1 Bft) W 275 ° 17,5 °C 19,9 °C 6,4 km/h (2 Bft)
04.09.2026 05:00 19,9 °C 86 % 1016,6 hPa 0,0 mm 3,7 km/h (1 Bft) W 275 ° 17,5 °C 19,9 °C 9,7 km/h (2 Bft)
04.09.2026 04:55 19,9 °C 86 % 1016,6 hPa 0,0 mm 3,4 km/h (1 Bft) W 275 ° 17,5 °C 19,9 °C 9,7 km/h (2 Bft)
04.09.2026 04:50 20,0 °C 86 % 1016,5 hPa 0,0 mm 3,2 km/h (1 Bft) W 275 ° 17,6 °C 20,0 °C 9,7 km/h (2 Bft)
04.09.2026 04:45 20,0 °C 86 % 1016,7 hPa 0,0 mm 4,2 km/h (1 Bft) W 275 ° 17,6 °C 20,0 °C 9,7 km/h (2 Bft)
04.09.2026 04:40 20,1 °C 86 % 1016,8 hPa 0,0 mm 2,8 km/h (1 Bft) W 275 ° 17,7 °C 20,1 °C 6,4 km/h (2 Bft)
04.09.2026 04:35 20,2 °C 86 % 1016,8 hPa 0,0 mm 3,9 km/h (1 Bft) W 276 ° 17,8 °C 20,2 °C 9,7 km/h (2 Bft)
04.09.2026 04:30 20,2 °C 86 % 1016,9 hPa 0,0 mm 5,3 km/h (1 Bft) W 276 ° 17,8 °C 20,2 °C 11,3 km/h (2 Bft)
04.09.2026 04:25 20,2 °C 86 % 1017,0 hPa 0,0 mm 5,5 km/h (1 Bft) W-NW 296 ° 17,8 °C 20,2 °C 11,3 km/h (2 Bft)
04.09.2026 04:20 20,2 °C 86 % 1017,0 hPa 0,0 mm 6,2 km/h (2 Bft) W 271 ° 17,8 °C 20,2 °C 12,9 km/h (3 Bft)
04.09.2026 04:15 20,2 °C 86 % 1017,0 hPa 0,0 mm 4,5 km/h (1 Bft) W 270 ° 17,8 °C 20,2 °C 11,3 km/h (2 Bft)
04.09.2026 04:10 20,2 °C 86 % 1017,3 hPa 0,0 mm 7,2 km/h (2 Bft) W 280 ° 17,8 °C 19,9 °C 16,1 km/h (3 Bft)
04.09.2026 04:05 20,2 °C 86 % 1017,4 hPa 0,0 mm 5,0 km/h (1 Bft) W 269 ° 17,8 °C 20,2 °C 9,7 km/h (2 Bft)
04.09.2026 04:00 20,3 °C 86 % 1017,3 hPa 0,0 mm 5,5 km/h (1 Bft) W 271 ° 17,9 °C 20,3 °C 12,9 km/h (3 Bft)
04.09.2026 03:55 20,4 °C 85 % 1017,3 hPa 0,0 mm 4,8 km/h (1 Bft) W 274 ° 17,8 °C 20,4 °C 11,3 km/h (2 Bft)
04.09.2026 03:50 20,5 °C 85 % 1017,3 hPa 0,0 mm 7,7 km/h (2 Bft) W 279 ° 17,9 °C 20,0 °C 14,5 km/h (3 Bft)
04.09.2026 03:45 20,7 °C 85 % 1017,3 hPa 0,0 mm 7,1 km/h (2 Bft) W-NW 291 ° 18,1 °C 20,4 °C 14,5 km/h (3 Bft)
04.09.2026 03:40 20,7 °C 85 % 1017,4 hPa 0,0 mm 7,0 km/h (2 Bft) W-NW 287 ° 18,1 °C 20,5 °C 12,9 km/h (3 Bft)
04.09.2026 03:35 20,8 °C 85 % 1017,4 hPa 0,0 mm 7,6 km/h (2 Bft) W-SW 251 ° 18,2 °C 20,3 °C 12,9 km/h (3 Bft)
04.09.2026 03:30 20,8 °C 85 % 1017,4 hPa 0,0 mm 8,3 km/h (2 Bft) W 278 ° 18,2 °C 20,1 °C 17,7 km/h (3 Bft)
04.09.2026 03:25 20,6 °C 86 % 1017,4 hPa 0,0 mm 8,5 km/h (2 Bft) W 269 ° 18,2 °C 19,8 °C 19,3 km/h (3 Bft)
04.09.2026 03:20 20,4 °C 86 % 1017,5 hPa 0,0 mm 6,5 km/h (2 Bft) W-SW 252 ° 18,0 °C 20,4 °C 14,5 km/h (3 Bft)
04.09.2026 03:15 20,2 °C 87 % 1017,5 hPa 0,0 mm 3,9 km/h (1 Bft) W 260 ° 18,0 °C 20,2 °C 16,1 km/h (3 Bft)
04.09.2026 03:10 20,2 °C 87 % 1017,6 hPa 0,0 mm 3,2 km/h (1 Bft) W-SW 242 ° 18,0 °C 20,2 °C 9,7 km/h (2 Bft)
04.09.2026 03:05 19,9 °C 88 % 1017,6 hPa 0,0 mm 5,2 km/h (1 Bft) W-SW 244 ° 17,8 °C 19,9 °C 11,3 km/h (2 Bft)
04.09.2026 03:00 19,6 °C 88 % 1017,7 hPa 0,0 mm 3,0 km/h (1 Bft) W-SW 250 ° 17,6 °C 19,6 °C 11,3 km/h (2 Bft)
04.09.2026 02:55 19,5 °C 88 % 1017,7 hPa 0,0 mm 0,0 km/h (0 Bft) W 271 ° 17,5 °C 19,5 °C 0,0 km/h (0 Bft)
04.09.2026 02:50 19,4 °C 88 % 1017,8 hPa 0,0 mm 0,0 km/h (0 Bft) W 271 ° 17,4 °C 19,4 °C 0,0 km/h (0 Bft)
04.09.2026 02:45 19,4 °C 87 % 1017,9 hPa 0,0 mm 0,0 km/h (0 Bft) W 271 ° 17,2 °C 19,4 °C 0,0 km/h (0 Bft)
04.09.2026 02:40 19,4 °C 87 % 1017,8 hPa 0,0 mm 0,0 km/h (0 Bft) W 271 ° 17,2 °C 19,4 °C 0,0 km/h (0 Bft)
04.09.2026 02:35 19,4 °C 87 % 1017,9 hPa 0,0 mm 0,0 km/h (0 Bft) W 271 ° 17,2 °C 19,4 °C 0,0 km/h (0 Bft)
04.09.2026 02:30 19,5 °C 87 % 1018,0 hPa 0,0 mm 0,0 km/h (0 Bft) W 271 ° 17,3 °C 19,5 °C 0,0 km/h (0 Bft)
04.09.2026 02:25 19,5 °C 87 % 1018,0 hPa 0,0 mm 0,0 km/h (0 Bft) W 271 ° 17,3 °C 19,5 °C 0,0 km/h (0 Bft)
04.09.2026 02:20 19,6 °C 87 % 1018,0 hPa 0,0 mm 0,0 km/h (0 Bft) W 271 ° 17,4 °C 19,6 °C 0,0 km/h (0 Bft)
04.09.2026 02:15 19,6 °C 87 % 1017,9 hPa 0,0 mm 0,0 km/h (0 Bft) W 271 ° 17,4 °C 19,6 °C 0,0 km/h (0 Bft)
04.09.2026 02:10 19,6 °C 87 % 1018,0 hPa 0,0 mm 0,0 km/h (0 Bft) W 271 ° 17,4 °C 19,6 °C 0,0 km/h (0 Bft)
04.09.2026 02:05 19,6 °C 87 % 1018,1 hPa 0,0 mm 0,0 km/h (0 Bft) W 271 ° 17,4 °C 19,6 °C 0,0 km/h (0 Bft)
04.09.2026 02:00 19,6 °C 87 % 1018,1 hPa 0,0 mm 0,1 km/h (0 Bft) W 271 ° 17,4 °C 19,6 °C 1,6 km/h (1 Bft)
04.09.2026 01:55 19,6 °C 87 % 1018,2 hPa 0,0 mm 0,5 km/h (0 Bft) W 271 ° 17,4 °C 19,6 °C 3,2 km/h (1 Bft)
04.09.2026 01:50 19,7 °C 87 % 1018,3 hPa 0,0 mm 0,7 km/h (0 Bft) W 271 ° 17,5 °C 19,7 °C 4,8 km/h (1 Bft)
04.09.2026 01:45 19,7 °C 87 % 1018,4 hPa 0,0 mm 0,6 km/h (0 Bft) W 271 ° 17,5 °C 19,7 °C 4,8 km/h (1 Bft)
04.09.2026 01:40 19,7 °C 87 % 1018,3 hPa 0,0 mm 0,5 km/h (0 Bft) W 271 ° 17,5 °C 19,7 °C 3,2 km/h (1 Bft)
04.09.2026 01:35 19,8 °C 87 % 1018,4 hPa 0,0 mm 0,6 km/h (0 Bft) W 271 ° 17,6 °C 19,8 °C 4,8 km/h (1 Bft)
04.09.2026 01:30 19,8 °C 87 % 1018,3 hPa 0,0 mm 1,6 km/h (1 Bft) W 271 ° 17,6 °C 19,8 °C 4,8 km/h (1 Bft)
04.09.2026 01:25 19,7 °C 87 % 1018,5 hPa 0,0 mm 1,0 km/h (0 Bft) W 271 ° 17,5 °C 19,7 °C 3,2 km/h (1 Bft)
04.09.2026 01:20 19,8 °C 87 % 1018,5 hPa 0,0 mm 1,2 km/h (1 Bft) W 271 ° 17,6 °C 19,8 °C 6,4 km/h (2 Bft)
04.09.2026 01:15 19,8 °C 86 % 1018,4 hPa 0,0 mm 0,6 km/h (0 Bft) W 271 ° 17,4 °C 19,8 °C 4,8 km/h (1 Bft)
04.09.2026 01:10 19,9 °C 86 % 1018,5 hPa 0,0 mm 0,8 km/h (0 Bft) W 271 ° 17,5 °C 19,9 °C 3,2 km/h (1 Bft)
04.09.2026 01:05 20,0 °C 86 % 1018,5 hPa 0,0 mm 0,3 km/h (0 Bft) W 271 ° 17,6 °C 20,0 °C 3,2 km/h (1 Bft)
04.09.2026 01:00 20,1 °C 85 % 1018,4 hPa 0,0 mm 0,7 km/h (0 Bft) W 270 ° 17,5 °C 20,1 °C 3,2 km/h (1 Bft)
04.09.2026 00:55 20,2 °C 85 % 1018,4 hPa 0,0 mm 0,3 km/h (0 Bft) W 271 ° 17,6 °C 20,2 °C 3,2 km/h (1 Bft)
04.09.2026 00:50 20,2 °C 85 % 1018,3 hPa 0,0 mm 0,0 km/h (0 Bft) W 271 ° 17,6 °C 20,2 °C 0,0 km/h (0 Bft)
04.09.2026 00:45 20,3 °C 85 % 1018,4 hPa 0,0 mm 0,6 km/h (0 Bft) W 271 ° 17,7 °C 20,3 °C 3,2 km/h (1 Bft)
04.09.2026 00:40 20,4 °C 84 % 1018,5 hPa 0,0 mm 2,6 km/h (1 Bft) W 271 ° 17,6 °C 20,4 °C 6,4 km/h (2 Bft)
04.09.2026 00:35 20,5 °C 84 % 1018,7 hPa 0,0 mm 3,0 km/h (1 Bft) W 272 ° 17,7 °C 20,5 °C 6,4 km/h (2 Bft)
04.09.2026 00:30 20,7 °C 84 % 1018,8 hPa 0,0 mm 3,2 km/h (1 Bft) W 271 ° 17,9 °C 20,7 °C 6,4 km/h (2 Bft)
04.09.2026 00:25 20,8 °C 83 % 1018,7 hPa 0,0 mm 3,8 km/h (1 Bft) W 271 ° 17,8 °C 20,8 °C 12,9 km/h (3 Bft)
04.09.2026 00:20 20,9 °C 83 % 1018,9 hPa 0,0 mm 4,3 km/h (1 Bft) W 264 ° 17,9 °C 20,9 °C 14,5 km/h (3 Bft)
04.09.2026 00:15 21,1 °C 83 % 1019,0 hPa 0,0 mm 5,1 km/h (1 Bft) W 271 ° 18,1 °C 21,1 °C 11,3 km/h (2 Bft)
04.09.2026 00:10 21,2 °C 83 % 1019,1 hPa 0,0 mm 6,5 km/h (2 Bft) W 275 ° 18,2 °C 21,2 °C 12,9 km/h (3 Bft)
04.09.2026 00:05 21,3 °C 83 % 1019,1 hPa 0,0 mm 7,6 km/h (2 Bft) W 281 ° 18,3 °C 20,9 °C 17,7 km/h (3 Bft)
04.09.2026 00:00 21,2 °C 83 % 1019,0 hPa 0,0 mm 7,5 km/h (2 Bft) W-SW 244 ° 18,2 °C 20,8 °C 16,1 km/h (3 Bft)
03.09.2026 23:55 21,2 °C 83 % 1019,0 hPa 0,0 mm 6,9 km/h (2 Bft) W 260 ° 18,2 °C 21,0 °C 14,5 km/h (3 Bft)
03.09.2026 23:50 21,0 °C 84 % 1019,2 hPa 0,0 mm 5,2 km/h (1 Bft) W 274 ° 18,2 °C 21,0 °C 11,3 km/h (2 Bft)
03.09.2026 23:45 20,9 °C 84 % 1019,1 hPa 0,0 mm 5,7 km/h (1 Bft) W 268 ° 18,1 °C 20,9 °C 12,9 km/h (3 Bft)
03.09.2026 23:40 20,9 °C 84 % 1019,2 hPa 0,0 mm 3,3 km/h (1 Bft) W 273 ° 18,1 °C 20,9 °C 9,7 km/h (2 Bft)
03.09.2026 23:35 20,9 °C 84 % 1019,3 hPa 0,0 mm 3,8 km/h (1 Bft) W 272 ° 18,1 °C 20,9 °C 9,7 km/h (2 Bft)
03.09.2026 23:30 20,9 °C 84 % 1019,3 hPa 0,0 mm 5,9 km/h (2 Bft) W 273 ° 18,1 °C 20,9 °C 11,3 km/h (2 Bft)
03.09.2026 23:25 20,9 °C 84 % 1019,4 hPa 0,0 mm 4,7 km/h (1 Bft) W 277 ° 18,1 °C 20,9 °C 9,7 km/h (2 Bft)
03.09.2026 23:20 20,8 °C 84 % 1019,3 hPa 0,0 mm 5,1 km/h (1 Bft) W 279 ° 18,0 °C 20,8 °C 11,3 km/h (2 Bft)
03.09.2026 23:15 20,8 °C 84 % 1019,2 hPa 0,0 mm 5,1 km/h (1 Bft) W-SW 256 ° 18,0 °C 20,8 °C 12,9 km/h (3 Bft)
03.09.2026 23:10 20,8 °C 84 % 1019,4 hPa 0,0 mm 5,1 km/h (1 Bft) W 274 ° 18,0 °C 20,8 °C 11,3 km/h (2 Bft)
03.09.2026 23:05 20,8 °C 84 % 1019,3 hPa 0,0 mm 6,2 km/h (2 Bft) W 274 ° 18,0 °C 20,8 °C 12,9 km/h (3 Bft)
03.09.2026 23:00 20,8 °C 84 % 1019,2 hPa 0,0 mm 6,4 km/h (2 Bft) W 273 ° 18,0 °C 20,8 °C 14,5 km/h (3 Bft)
03.09.2026 22:55 20,7 °C 85 % 1019,3 hPa 0,0 mm 6,1 km/h (2 Bft) W 273 ° 18,1 °C 20,7 °C 12,9 km/h (3 Bft)
03.09.2026 22:50 20,6 °C 85 % 1019,3 hPa 0,0 mm 5,9 km/h (2 Bft) W 277 ° 18,0 °C 20,6 °C 12,9 km/h (3 Bft)
03.09.2026 22:45 20,5 °C 84 % 1019,3 hPa 0,0 mm 5,9 km/h (2 Bft) W 263 ° 17,7 °C 20,5 °C 14,5 km/h (3 Bft)
03.09.2026 22:40 20,6 °C 84 % 1019,4 hPa 0,0 mm 6,0 km/h (2 Bft) W 277 ° 17,8 °C 20,6 °C 12,9 km/h (3 Bft)
03.09.2026 22:35 20,6 °C 84 % 1019,4 hPa 0,0 mm 5,6 km/h (1 Bft) W-SW 254 ° 17,8 °C 20,6 °C 12,9 km/h (3 Bft)
03.09.2026 22:30 20,6 °C 84 % 1019,3 hPa 0,0 mm 6,3 km/h (2 Bft) W-NW 292 ° 17,8 °C 20,6 °C 14,5 km/h (3 Bft)
03.09.2026 22:25 20,5 °C 84 % 1019,3 hPa 0,0 mm 7,0 km/h (2 Bft) W-NW 295 ° 17,7 °C 20,3 °C 14,5 km/h (3 Bft)
03.09.2026 22:20 20,4 °C 84 % 1019,2 hPa 0,0 mm 8,3 km/h (2 Bft) W 276 ° 17,6 °C 19,7 °C 16,1 km/h (3 Bft)
03.09.2026 22:15 20,4 °C 84 % 1019,2 hPa 0,0 mm 7,7 km/h (2 Bft) W 268 ° 17,6 °C 19,9 °C 14,5 km/h (3 Bft)
03.09.2026 22:10 20,3 °C 84 % 1019,3 hPa 0,0 mm 6,8 km/h (2 Bft) W-NW 288 ° 17,5 °C 20,1 °C 11,3 km/h (2 Bft)
03.09.2026 22:05 20,3 °C 84 % 1019,2 hPa 0,0 mm 6,5 km/h (2 Bft) W-NW 290 ° 17,5 °C 20,3 °C 14,5 km/h (3 Bft)
03.09.2026 22:00 20,4 °C 84 % 1019,4 hPa 0,0 mm 5,8 km/h (2 Bft) W 267 ° 17,6 °C 20,4 °C 12,9 km/h (3 Bft)
03.09.2026 21:55 20,4 °C 84 % 1019,3 hPa 0,0 mm 6,8 km/h (2 Bft) W 271 ° 17,6 °C 20,2 °C 16,1 km/h (3 Bft)
03.09.2026 21:50 20,5 °C 84 % 1019,4 hPa 0,0 mm 7,7 km/h (2 Bft) W 275 ° 17,7 °C 20,0 °C 12,9 km/h (3 Bft)
03.09.2026 21:45 20,5 °C 84 % 1019,2 hPa 0,0 mm 5,7 km/h (1 Bft) W-NW 290 ° 17,7 °C 20,5 °C 12,9 km/h (3 Bft)
03.09.2026 21:40 20,6 °C 83 % 1019,2 hPa 0,0 mm 6,0 km/h (2 Bft) W 276 ° 17,6 °C 20,6 °C 16,1 km/h (3 Bft)
03.09.2026 21:35 20,5 °C 83 % 1019,1 hPa 0,0 mm 6,1 km/h (2 Bft) W 263 ° 17,5 °C 20,5 °C 12,9 km/h (3 Bft)
03.09.2026 21:30 20,6 °C 83 % 1019,2 hPa 0,0 mm 7,1 km/h (2 Bft) W 279 ° 17,6 °C 20,3 °C 17,7 km/h (3 Bft)
03.09.2026 21:25 20,6 °C 83 % 1019,3 hPa 0,0 mm 6,2 km/h (2 Bft) W 269 ° 17,6 °C 20,6 °C 12,9 km/h (3 Bft)
03.09.2026 21:20 20,6 °C 83 % 1019,2 hPa 0,0 mm 5,0 km/h (1 Bft) W 263 ° 17,6 °C 20,6 °C 11,3 km/h (2 Bft)
03.09.2026 21:15 20,6 °C 83 % 1019,1 hPa 0,0 mm 5,2 km/h (1 Bft) W-SW 248 ° 17,6 °C 20,6 °C 14,5 km/h (3 Bft)
03.09.2026 21:10 20,7 °C 83 % 1019,2 hPa 0,0 mm 5,1 km/h (1 Bft) W-SW 254 ° 17,7 °C 20,7 °C 11,3 km/h (2 Bft)
03.09.2026 21:05 20,7 °C 82 % 1019,2 hPa 0,0 mm 4,2 km/h (1 Bft) W 274 ° 17,5 °C 20,7 °C 11,3 km/h (2 Bft)
03.09.2026 21:00 20,7 °C 82 % 1019,2 hPa 0,0 mm 6,0 km/h (2 Bft) W 274 ° 17,5 °C 20,7 °C 14,5 km/h (3 Bft)
03.09.2026 20:55 20,8 °C 82 % 1019,3 hPa 0,0 mm 5,7 km/h (1 Bft) W 269 ° 17,6 °C 20,8 °C 14,5 km/h (3 Bft)
03.09.2026 20:50 20,8 °C 82 % 1019,3 hPa 0,0 mm 7,1 km/h (2 Bft) W 274 ° 17,6 °C 20,5 °C 14,5 km/h (3 Bft)
03.09.2026 20:45 20,9 °C 81 % 1019,4 hPa 0,0 mm 7,0 km/h (2 Bft) W-SW 257 ° 17,5 °C 20,7 °C 16,1 km/h (3 Bft)
03.09.2026 20:40 21,0 °C 81 % 1019,2 hPa 0,0 mm 6,0 km/h (2 Bft) W 274 ° 17,6 °C 21,0 °C 11,3 km/h (2 Bft)
03.09.2026 20:35 21,1 °C 81 % 1019,3 hPa 0,0 mm 6,9 km/h (2 Bft) W-NW 284 ° 17,7 °C 20,9 °C 14,5 km/h (3 Bft)
03.09.2026 20:30 21,2 °C 80 % 1019,3 hPa 0,0 mm 8,1 km/h (2 Bft) W-NW 282 ° 17,6 °C 20,6 °C 20,9 km/h (4 Bft)
03.09.2026 20:25 21,3 °C 80 % 1019,2 hPa 0,0 mm 7,8 km/h (2 Bft) W 281 ° 17,7 °C 20,8 °C 14,5 km/h (3 Bft)
03.09.2026 20:20 21,4 °C 80 % 1019,3 hPa 0,0 mm 9,0 km/h (2 Bft) W-NW 286 ° 17,8 °C 20,5 °C 17,7 km/h (3 Bft)
03.09.2026 20:15 21,5 °C 79 % 1019,3 hPa 0,0 mm 8,7 km/h (2 Bft) W 262 ° 17,7 °C 20,7 °C 16,1 km/h (3 Bft)
03.09.2026 20:10 21,6 °C 79 % 1019,4 hPa 0,0 mm 8,5 km/h (2 Bft) W-SW 250 ° 17,8 °C 20,9 °C 17,7 km/h (3 Bft)
03.09.2026 20:05 21,7 °C 79 % 1019,3 hPa 0,0 mm 10,8 km/h (2 Bft) W 261 ° 17,9 °C 20,3 °C 20,9 km/h (4 Bft)
03.09.2026 20:00 21,9 °C 78 % 1019,1 hPa 0,0 mm 7,2 km/h (2 Bft) W-NW 283 ° 17,9 °C 21,6 °C 14,5 km/h (3 Bft)
03.09.2026 19:55 22,0 °C 77 % 1019,0 hPa 0,0 mm 8,3 km/h (2 Bft) W-NW 284 ° 17,8 °C 21,4 °C 17,7 km/h (3 Bft)
03.09.2026 19:50 22,2 °C 77 % 1019,1 hPa 0,0 mm 9,5 km/h (2 Bft) W-SW 254 ° 18,0 °C 21,2 °C 17,7 km/h (3 Bft)
03.09.2026 19:45 22,3 °C 76 % 1019,4 hPa 0,0 mm 12,4 km/h (3 Bft) W-SW 252 ° 17,9 °C 20,6 °C 24,1 km/h (4 Bft)
03.09.2026 19:40 22,5 °C 76 % 1019,2 hPa 0,0 mm 9,5 km/h (2 Bft) W-NW 291 ° 18,0 °C 21,5 °C 22,5 km/h (4 Bft)
03.09.2026 19:35 22,7 °C 76 % 1019,2 hPa 0,0 mm 8,8 km/h (2 Bft) W 259 ° 18,2 °C 21,9 °C 17,7 km/h (3 Bft)
03.09.2026 19:30 22,8 °C 75 % 1019,3 hPa 0,0 mm 10,3 km/h (2 Bft) W 267 ° 18,1 °C 21,7 °C 17,7 km/h (3 Bft)
03.09.2026 19:25 22,8 °C 75 % 1019,2 hPa 0,0 mm 11,0 km/h (2 Bft) W 260 ° 18,1 °C 21,5 °C 22,5 km/h (4 Bft)
03.09.2026 19:20 22,8 °C 75 % 1019,1 hPa 0,0 mm 10,3 km/h (2 Bft) W-SW 241 ° 18,1 °C 21,7 °C 17,7 km/h (3 Bft)
03.09.2026 19:15 22,8 °C 75 % 1019,2 hPa 0,0 mm 8,3 km/h (2 Bft) W 273 ° 18,1 °C 22,2 °C 14,5 km/h (3 Bft)
03.09.2026 19:10 22,7 °C 75 % 1019,2 hPa 0,0 mm 10,5 km/h (2 Bft) W-NW 288 ° 18,0 °C 21,5 °C 19,3 km/h (3 Bft)
03.09.2026 19:05 22,5 °C 76 % 1019,2 hPa 0,0 mm 8,1 km/h (2 Bft) W 268 ° 18,0 °C 21,9 °C 16,1 km/h (3 Bft)
03.09.2026 19:00 22,4 °C 76 % 1019,1 hPa 0,0 mm 10,7 km/h (2 Bft) W 271 ° 18,0 °C 21,1 °C 20,9 km/h (4 Bft)
03.09.2026 18:55 22,3 °C 77 % 1019,2 hPa 0,0 mm 8,5 km/h (2 Bft) W 263 ° 18,1 °C 21,6 °C 20,9 km/h (4 Bft)
03.09.2026 18:50 22,2 °C 76 % 1019,3 hPa 0,0 mm 12,1 km/h (2 Bft) W-SW 254 ° 17,8 °C 20,5 °C 24,1 km/h (4 Bft)
03.09.2026 18:45 22,1 °C 77 % 1019,2 hPa 0,0 mm 12,3 km/h (3 Bft) W 262 ° 17,9 °C 20,4 °C 24,1 km/h (4 Bft)
03.09.2026 18:40 22,1 °C 77 % 1019,4 hPa 0,0 mm 11,4 km/h (2 Bft) W 268 ° 17,9 °C 20,6 °C 22,5 km/h (4 Bft)
03.09.2026 18:35 22,2 °C 76 % 1019,2 hPa 0,0 mm 11,0 km/h (2 Bft) W-NW 286 ° 17,8 °C 20,8 °C 20,9 km/h (4 Bft)
03.09.2026 18:30 22,6 °C 75 % 1019,2 hPa 0,0 mm 9,4 km/h (2 Bft) W-NW 290 ° 17,9 °C 21,7 °C 20,9 km/h (4 Bft)
03.09.2026 18:25 22,8 °C 75 % 1019,2 hPa 0,0 mm 11,1 km/h (2 Bft) W 279 ° 18,1 °C 21,5 °C 20,9 km/h (4 Bft)
03.09.2026 18:20 22,8 °C 74 % 1019,0 hPa 0,0 mm 13,5 km/h (3 Bft) W 264 ° 17,9 °C 20,9 °C 24,1 km/h (4 Bft)
03.09.2026 18:15 22,8 °C 75 % 1019,1 hPa 0,0 mm 13,1 km/h (3 Bft) W 277 ° 18,1 °C 21,0 °C 25,7 km/h (4 Bft)
03.09.2026 18:10 22,7 °C 75 % 1019,2 hPa 0,0 mm 11,8 km/h (2 Bft) W 260 ° 18,0 °C 21,2 °C 24,1 km/h (4 Bft)
03.09.2026 18:05 22,4 °C 75 % 1019,1 hPa 0,0 mm 12,5 km/h (3 Bft) W 275 ° 17,7 °C 20,7 °C 22,5 km/h (4 Bft)
03.09.2026 18:00 22,4 °C 75 % 1019,3 hPa 0,0 mm 15,0 km/h (3 Bft) W 267 ° 17,7 °C 20,2 °C 25,7 km/h (4 Bft)
03.09.2026 17:55 22,6 °C 74 % 1019,3 hPa 0,0 mm 15,0 km/h (3 Bft) W 270 ° 17,7 °C 20,4 °C 25,7 km/h (4 Bft)
03.09.2026 17:50 22,8 °C 74 % 1019,3 hPa 0,0 mm 14,8 km/h (3 Bft) W-SW 241 ° 17,9 °C 20,7 °C 20,9 km/h (4 Bft)
03.09.2026 17:45 22,7 °C 75 % 1019,3 hPa 0,0 mm 13,7 km/h (3 Bft) W 263 ° 18,0 °C 20,8 °C 24,1 km/h (4 Bft)
03.09.2026 17:40 22,3 °C 75 % 1019,4 hPa 0,0 mm 12,8 km/h (3 Bft) W-SW 257 ° 17,6 °C 20,5 °C 20,9 km/h (4 Bft)
03.09.2026 17:35 22,4 °C 75 % 1019,5 hPa 0,0 mm 13,2 km/h (3 Bft) W 269 ° 17,7 °C 20,5 °C 29,0 km/h (5 Bft)
03.09.2026 17:30 22,5 °C 74 % 1019,5 hPa 0,0 mm 12,3 km/h (3 Bft) W 263 ° 17,6 °C 20,8 °C 20,9 km/h (4 Bft)
03.09.2026 17:25 22,5 °C 73 % 1019,3 hPa 0,0 mm 13,5 km/h (3 Bft) W-SW 249 ° 17,4 °C 20,6 °C 25,7 km/h (4 Bft)
03.09.2026 17:20 22,5 °C 73 % 1019,2 hPa 0,0 mm 12,9 km/h (3 Bft) W-SW 254 ° 17,4 °C 20,7 °C 24,1 km/h (4 Bft)
03.09.2026 17:15 22,5 °C 73 % 1019,3 hPa 0,0 mm 13,3 km/h (3 Bft) W 273 ° 17,4 °C 20,6 °C 24,1 km/h (4 Bft)
03.09.2026 17:10 22,6 °C 73 % 1019,4 hPa 0,0 mm 13,1 km/h (3 Bft) W-SW 252 ° 17,5 °C 20,8 °C 24,1 km/h (4 Bft)
03.09.2026 17:05 22,7 °C 72 % 1019,3 hPa 0,0 mm 12,8 km/h (3 Bft) W-SW 249 ° 17,4 °C 21,0 °C 20,9 km/h (4 Bft)
03.09.2026 17:00 22,6 °C 73 % 1019,4 hPa 0,0 mm 11,5 km/h (2 Bft) W-SW 255 ° 17,5 °C 21,1 °C 24,1 km/h (4 Bft)
03.09.2026 16:55 22,7 °C 72 % 1019,3 hPa 0,0 mm 13,5 km/h (3 Bft) W-SW 250 ° 17,4 °C 20,8 °C 25,7 km/h (4 Bft)
03.09.2026 16:50 22,7 °C 72 % 1019,5 hPa 0,0 mm 15,3 km/h (3 Bft) SW 232 ° 17,4 °C 20,5 °C 27,4 km/h (4 Bft)
03.09.2026 16:45 22,7 °C 73 % 1019,5 hPa 0,0 mm 13,8 km/h (3 Bft) W 274 ° 17,6 °C 20,8 °C 29,0 km/h (5 Bft)
03.09.2026 16:40 22,7 °C 73 % 1019,4 hPa 0,0 mm 13,9 km/h (3 Bft) NW 325 ° 17,6 °C 20,7 °C 25,7 km/h (4 Bft)
03.09.2026 16:35 22,7 °C 73 % 1019,5 hPa 0,0 mm 11,6 km/h (2 Bft) W 281 ° 17,6 °C 21,2 °C 24,1 km/h (4 Bft)
03.09.2026 16:30 22,7 °C 73 % 1019,5 hPa 0,0 mm 11,5 km/h (2 Bft) W 259 ° 17,6 °C 21,3 °C 20,9 km/h (4 Bft)
03.09.2026 16:25 22,6 °C 73 % 1019,5 hPa 0,0 mm 11,1 km/h (2 Bft) W-SW 239 ° 17,5 °C 21,2 °C 20,9 km/h (4 Bft)
03.09.2026 16:20 22,4 °C 73 % 1019,5 hPa 0,0 mm 10,2 km/h (2 Bft) W-SW 243 ° 17,3 °C 21,2 °C 20,9 km/h (4 Bft)
03.09.2026 16:15 22,4 °C 74 % 1019,5 hPa 0,0 mm 9,7 km/h (2 Bft) W 268 ° 17,5 °C 21,4 °C 20,9 km/h (4 Bft)
03.09.2026 16:10 22,4 °C 73 % 1019,5 hPa 0,0 mm 9,7 km/h (2 Bft) W-NW 289 ° 17,3 °C 21,4 °C 22,5 km/h (4 Bft)
03.09.2026 16:05 22,4 °C 73 % 1019,5 hPa 0,0 mm 12,5 km/h (3 Bft) W-SW 255 ° 17,3 °C 20,7 °C 22,5 km/h (4 Bft)
03.09.2026 16:00 22,4 °C 73 % 1019,5 hPa 0,0 mm 13,7 km/h (3 Bft) W-SW 257 ° 17,3 °C 20,4 °C 22,5 km/h (4 Bft)
03.09.2026 15:55 22,6 °C 73 % 1019,4 hPa 0,0 mm 10,7 km/h (2 Bft) W-NW 296 ° 17,5 °C 21,3 °C 20,9 km/h (4 Bft)
03.09.2026 15:50 22,6 °C 73 % 1019,3 hPa 0,0 mm 11,4 km/h (2 Bft) N-NW 334 ° 17,5 °C 21,2 °C 22,5 km/h (4 Bft)
03.09.2026 15:45 22,6 °C 73 % 1019,1 hPa 0,0 mm 8,4 km/h (2 Bft) W 280 ° 17,5 °C 22,0 °C 17,7 km/h (3 Bft)
03.09.2026 15:40 22,7 °C 72 % 1019,2 hPa 0,0 mm 11,5 km/h (2 Bft) W-NW 300 ° 17,4 °C 21,3 °C 22,5 km/h (4 Bft)
03.09.2026 15:35 22,8 °C 72 % 1019,1 hPa 0,0 mm 11,5 km/h (2 Bft) W 260 ° 17,5 °C 21,4 °C 19,3 km/h (3 Bft)
03.09.2026 15:30 23,0 °C 72 % 1019,1 hPa 0,0 mm 11,1 km/h (2 Bft) W-NW 284 ° 17,7 °C 21,7 °C 20,9 km/h (4 Bft)
03.09.2026 15:25 23,1 °C 72 % 1019,2 hPa 0,0 mm 15,9 km/h (3 Bft) W-NW 294 ° 17,8 °C 20,8 °C 29,0 km/h (5 Bft)
03.09.2026 15:20 23,2 °C 71 % 1019,0 hPa 0,0 mm 16,6 km/h (3 Bft) W-SW 256 ° 17,6 °C 20,9 °C 27,4 km/h (4 Bft)
03.09.2026 15:15 23,4 °C 71 % 1019,0 hPa 0,0 mm 13,7 km/h (3 Bft) W-SW 257 ° 17,8 °C 21,6 °C 25,7 km/h (4 Bft)
03.09.2026 15:10 23,3 °C 71 % 1019,1 hPa 0,0 mm 12,9 km/h (3 Bft) W 261 ° 17,7 °C 21,6 °C 20,9 km/h (4 Bft)
03.09.2026 15:05 23,3 °C 71 % 1019,0 hPa 0,0 mm 12,1 km/h (2 Bft) W 271 ° 17,7 °C 21,8 °C 20,9 km/h (4 Bft)
03.09.2026 15:00 23,2 °C 71 % 1019,0 hPa 0,0 mm 14,3 km/h (3 Bft) W 268 ° 17,6 °C 21,3 °C 27,4 km/h (4 Bft)
03.09.2026 14:55 23,4 °C 70 % 1019,1 hPa 0,0 mm 13,0 km/h (3 Bft) W-SW 252 ° 17,6 °C 21,7 °C 25,7 km/h (4 Bft)
03.09.2026 14:50 23,4 °C 70 % 1019,0 hPa 0,0 mm 13,9 km/h (3 Bft) W-SW 246 ° 17,6 °C 21,6 °C 37,0 km/h (5 Bft)
03.09.2026 14:45 23,6 °C 70 % 1019,1 hPa 0,0 mm 15,4 km/h (3 Bft) W 269 ° 17,8 °C 21,5 °C 25,7 km/h (4 Bft)
03.09.2026 14:40 23,6 °C 70 % 1018,9 hPa 0,0 mm 12,6 km/h (3 Bft) W 281 ° 17,8 °C 22,1 °C 22,5 km/h (4 Bft)
03.09.2026 14:35 23,8 °C 69 % 1019,0 hPa 0,0 mm 14,1 km/h (3 Bft) W-NW 297 ° 17,8 °C 22,0 °C 25,7 km/h (4 Bft)
03.09.2026 14:30 23,9 °C 68 % 1019,0 hPa 0,0 mm 13,2 km/h (3 Bft) W-NW 288 ° 17,6 °C 22,3 °C 24,1 km/h (4 Bft)
03.09.2026 14:25 24,1 °C 68 % 1018,8 hPa 0,0 mm 13,0 km/h (3 Bft) W 281 ° 17,8 °C 22,6 °C 27,4 km/h (4 Bft)
03.09.2026 14:20 24,0 °C 68 % 1018,9 hPa 0,0 mm 11,9 km/h (2 Bft) NW 316 ° 17,7 °C 22,7 °C 19,3 km/h (3 Bft)
03.09.2026 14:15 23,8 °C 68 % 1018,8 hPa 0,0 mm 10,0 km/h (2 Bft) W-NW 285 ° 17,5 °C 22,8 °C 17,7 km/h (3 Bft)
03.09.2026 14:10 23,7 °C 69 % 1018,7 hPa 0,0 mm 8,6 km/h (2 Bft) W-SW 251 ° 17,7 °C 23,1 °C 14,5 km/h (3 Bft)
03.09.2026 14:05 23,5 °C 68 % 1018,8 hPa 0,0 mm 9,6 km/h (2 Bft) W-SW 244 ° 17,2 °C 22,6 °C 17,7 km/h (3 Bft)
03.09.2026 14:00 23,2 °C 69 % 1018,8 hPa 0,0 mm 9,9 km/h (2 Bft) W 276 ° 17,2 °C 22,2 °C 20,9 km/h (4 Bft)
_ Min-Zeit 02:35 13:30 13:20 - 00:50 - - 02:35 02:35 00:50
Minimum _ 19,4 °C 63 % 1012,7 hPa - 0,0 km/h (0 Bft) - - 17,2 °C 19,4 °C 0,0 km/h (0 Bft)
_ Max-Zeit 13:35 02:50 16:00 14:00 13:10 - - 10:50 13:30 13:10
Maximum _ 27,2 °C 88 % 1019,5 hPa 0,0 mm 19,6 km/h
W (3 Bft)
- - 20,0 °C 25,7 °C 38,6 km/h
W-SW (5 Bft)
Durchschnitt _ 22,1 °C 78 % 1017,3 hPa #0,0 mm 8,1 km/h (2 Bft) W - 18,1 °C 21,4 °C 16,6 km/h (3 Bft)